createdAt,value
2018-12-09T00:04:49.147Z,7.10
2018-12-09T00:09:52.560Z,7.10
2018-12-09T00:14:55.844Z,7.10
2018-12-09T00:19:59.142Z,7.20
2018-12-09T00:25:02.413Z,7.20
2018-12-09T00:30:05.839Z,7.20
2018-12-09T00:35:09.131Z,7.20
2018-12-09T00:40:12.419Z,7.20
2018-12-09T00:45:15.898Z,7.10
2018-12-09T00:55:22.204Z,7.20
2018-12-09T01:00:25.556Z,7.10
2018-12-09T01:05:28.834Z,7.10
2018-12-09T01:10:32.279Z,7.00
2018-12-09T01:15:35.558Z,7.00
2018-12-09T01:20:39.013Z,7.00
2018-12-09T01:25:42.362Z,7.00
2018-12-09T01:30:45.647Z,7.00
2018-12-09T01:35:48.983Z,7.00
2018-12-09T01:40:55.591Z,7.00
2018-12-09T01:45:59.034Z,7.00
2018-12-09T01:51:02.335Z,7.00
2018-12-09T01:56:05.772Z,7.00
2018-12-09T02:01:09.058Z,7.10
2018-12-09T02:06:12.345Z,7.10
2018-12-09T02:11:15.628Z,7.10
2018-12-09T02:16:18.931Z,7.20
2018-12-09T02:21:22.238Z,7.40
2018-12-09T02:26:25.663Z,7.50
2018-12-09T02:31:28.962Z,7.60
2018-12-09T02:36:32.255Z,7.60
2018-12-09T02:41:35.551Z,7.70
2018-12-09T02:46:38.847Z,7.70
2018-12-09T02:51:42.118Z,7.70
2018-12-09T02:56:45.626Z,7.80
2018-12-09T03:06:52.003Z,8.00
2018-12-09T03:11:55.279Z,8.10
2018-12-09T03:16:58.570Z,8.20
2018-12-09T03:22:01.857Z,8.30
2018-12-09T03:27:05.268Z,8.40
2018-12-09T03:32:08.555Z,8.40
2018-12-09T03:37:11.839Z,8.40
2018-12-09T03:42:15.148Z,8.40
2018-12-09T03:47:18.442Z,8.40
2018-12-09T03:52:21.823Z,8.40
2018-12-09T03:57:25.108Z,8.50
2018-12-09T04:02:28.419Z,8.50
2018-12-09T04:07:31.903Z,8.40
2018-12-09T04:12:35.169Z,8.40
2018-12-09T04:17:38.459Z,8.30
2018-12-09T04:22:41.833Z,8.10
2018-12-09T04:27:45.110Z,8.10
2018-12-09T04:32:48.431Z,8.00
2018-12-09T04:37:51.727Z,7.90
2018-12-09T04:42:55.076Z,7.70
2018-12-09T04:47:58.427Z,7.30
2018-12-09T04:53:01.726Z,7.10
2018-12-09T04:58:05.007Z,6.90
2018-12-09T05:03:08.404Z,6.70
2018-12-09T05:08:11.882Z,6.60
2018-12-09T05:13:15.184Z,6.40
2018-12-09T05:18:18.618Z,6.40
2018-12-09T05:23:21.906Z,6.20
2018-12-09T05:28:25.199Z,6.10
2018-12-09T05:33:28.496Z,6.10
2018-12-09T05:38:31.907Z,6.10
2018-12-09T05:43:35.182Z,6.20
2018-12-09T05:48:38.485Z,6.10
2018-12-09T05:53:41.856Z,6.10
2018-12-09T05:58:45.136Z,6.20
2018-12-09T06:08:51.754Z,6.00
2018-12-09T06:13:55.039Z,5.90
2018-12-09T06:18:58.338Z,6.00
2018-12-09T06:24:01.688Z,5.90
2018-12-09T06:29:05.106Z,5.90
2018-12-09T06:34:08.550Z,6.00
2018-12-09T06:39:11.884Z,6.30
2018-12-09T06:44:15.162Z,6.20
2018-12-09T06:49:18.532Z,6.10
2018-12-09T06:54:21.796Z,6.10
2018-12-09T06:59:25.076Z,6.10
2018-12-09T07:04:28.500Z,6.10
2018-12-09T07:09:31.772Z,6.30
2018-12-09T07:14:35.227Z,6.40
2018-12-09T07:19:38.519Z,6.50
2018-12-09T07:24:41.811Z,6.80
2018-12-09T07:29:45.100Z,6.90
2018-12-09T07:34:48.483Z,6.90
2018-12-09T07:39:51.787Z,6.90
2018-12-09T07:44:55.189Z,6.80
2018-12-09T07:49:58.526Z,6.80
2018-12-09T07:55:01.935Z,6.70
2018-12-09T08:00:06.079Z,6.60
2018-12-09T08:05:09.491Z,6.60
2018-12-09T08:10:12.888Z,6.60
2018-12-09T08:15:16.356Z,6.70
2018-12-09T08:20:19.646Z,6.70
2018-12-09T08:25:24.066Z,6.70
2018-12-09T08:30:27.400Z,6.70
2018-12-09T08:35:30.746Z,6.80
2018-12-09T08:40:34.047Z,6.80
2018-12-09T08:45:37.424Z,6.90
2018-12-09T08:50:40.783Z,6.90
2018-12-09T08:55:44.131Z,7.00
2018-12-09T09:00:47.446Z,7.00
2018-12-09T09:05:50.716Z,7.10
2018-12-09T09:10:54.156Z,7.20
2018-12-09T09:15:58.624Z,7.30
2018-12-09T09:21:02.003Z,7.30
2018-12-09T09:26:05.450Z,7.40
2018-12-09T09:31:08.836Z,7.50
2018-12-09T09:36:12.102Z,7.50
2018-12-09T09:41:15.554Z,7.60
2018-12-09T09:46:19.009Z,7.70
2018-12-09T09:51:22.538Z,7.80
2018-12-09T09:56:25.996Z,7.90
2018-12-09T10:01:29.423Z,8.10
2018-12-09T10:06:32.755Z,8.10
2018-12-09T10:11:36.079Z,8.00
2018-12-09T10:16:39.384Z,7.60
2018-12-09T10:21:42.963Z,7.50
2018-12-09T10:26:46.325Z,7.40
2018-12-09T10:31:49.618Z,7.40
2018-12-09T10:36:53.062Z,7.20
2018-12-09T10:41:56.452Z,7.20
2018-12-09T10:46:59.881Z,7.20
2018-12-09T10:52:03.257Z,7.20
2018-12-09T10:57:06.715Z,7.20
2018-12-09T11:02:15.414Z,7.20
2018-12-09T11:07:18.835Z,7.40
2018-12-09T11:17:25.302Z,7.60
2018-12-09T11:22:28.743Z,7.60
2018-12-09T11:27:32.103Z,7.60
2018-12-09T11:32:35.399Z,7.60
2018-12-09T11:42:41.973Z,7.50
2018-12-09T11:47:45.458Z,7.50
2018-12-09T11:52:49.038Z,7.40
2018-12-09T11:57:52.462Z,7.50
2018-12-09T12:02:56.898Z,7.50
2018-12-09T12:08:00.178Z,7.50
2018-12-09T12:13:03.546Z,7.60
2018-12-09T12:18:07.109Z,7.60
2018-12-09T12:23:10.435Z,7.70
2018-12-09T12:28:13.876Z,7.80
2018-12-09T12:33:17.258Z,7.70
2018-12-09T12:38:20.646Z,7.70
2018-12-09T12:43:23.978Z,7.60
2018-12-09T12:48:27.475Z,7.50
2018-12-09T12:53:30.832Z,7.50
2018-12-09T12:58:34.132Z,7.60
2018-12-09T13:03:37.568Z,7.50
2018-12-09T13:08:41.076Z,7.50
2018-12-09T13:13:44.407Z,7.30
2018-12-09T13:18:47.878Z,7.30
2018-12-09T13:23:51.258Z,7.20
2018-12-09T13:28:54.711Z,7.10
2018-12-09T13:33:58.064Z,6.90
2018-12-09T13:39:01.486Z,6.90
2018-12-09T13:44:04.773Z,6.90
2018-12-09T13:49:08.279Z,6.90
2018-12-09T13:54:11.675Z,6.90
2018-12-09T13:59:15.220Z,6.90
2018-12-09T14:04:18.798Z,6.90
2018-12-09T14:09:22.152Z,6.90
2018-12-09T14:14:25.511Z,6.80
2018-12-09T14:19:28.847Z,6.70
2018-12-09T14:24:32.209Z,6.70
2018-12-09T14:29:35.503Z,6.60
2018-12-09T14:34:38.832Z,6.60
2018-12-09T14:39:42.369Z,6.50
2018-12-09T14:44:45.632Z,6.40
2018-12-09T14:49:49.116Z,6.50
2018-12-09T14:59:59.176Z,6.50
2018-12-09T15:05:02.601Z,6.50
2018-12-09T15:10:08.910Z,6.50
2018-12-09T15:15:09.643Z,6.50
2018-12-09T15:20:13.052Z,6.50
2018-12-09T15:25:17.571Z,6.50
2018-12-09T15:30:21.147Z,6.60
2018-12-09T15:35:24.452Z,6.50
2018-12-09T15:40:28.018Z,6.50
2018-12-09T15:45:32.318Z,6.50
2018-12-09T15:55:40.054Z,6.50
2018-12-09T16:00:48.723Z,6.50
2018-12-09T16:05:52.219Z,6.50
2018-12-09T16:10:55.632Z,6.50
2018-12-09T16:16:00.061Z,6.60
2018-12-09T16:21:03.566Z,6.60
2018-12-09T16:26:07.007Z,6.60
2018-12-09T16:31:10.404Z,6.60
2018-12-09T16:36:13.804Z,6.60
2018-12-09T16:41:17.241Z,6.70
2018-12-09T16:46:20.679Z,6.60
2018-12-09T16:51:24.146Z,6.60
2018-12-09T16:56:27.593Z,6.60
2018-12-09T17:01:31.107Z,6.60
2018-12-09T17:06:34.523Z,6.60
2018-12-09T17:11:38.042Z,6.60
2018-12-09T17:16:41.418Z,6.60
2018-12-09T17:21:44.846Z,6.60
2018-12-09T17:26:48.260Z,6.60
2018-12-09T17:36:54.855Z,6.50
2018-12-09T17:41:58.284Z,6.40
2018-12-09T17:47:01.839Z,6.40
2018-12-09T17:52:05.441Z,6.30
2018-12-09T17:57:09.267Z,6.30
2018-12-09T18:02:12.831Z,6.30
2018-12-09T18:07:16.400Z,6.20
2018-12-09T18:12:19.915Z,6.20
2018-12-09T18:17:23.503Z,6.20
2018-12-09T18:22:26.918Z,6.20
2018-12-09T18:27:30.318Z,6.20
2018-12-09T18:32:33.689Z,6.20
2018-12-09T18:37:37.200Z,6.20
2018-12-09T18:42:40.742Z,6.20
2018-12-09T18:52:48.517Z,6.20
2018-12-09T18:57:51.989Z,6.10
2018-12-09T19:02:55.512Z,6.10
2018-12-09T19:07:59.074Z,6.10
2018-12-09T19:13:02.649Z,6.10
2018-12-09T19:18:06.118Z,6.10
2018-12-09T19:23:09.564Z,6.00
2018-12-09T19:28:13.075Z,5.90
2018-12-09T19:33:17.878Z,5.80
2018-12-09T19:38:21.937Z,5.80
2018-12-09T19:43:25.353Z,5.70
2018-12-09T19:48:29.254Z,5.70
2018-12-09T19:53:33.563Z,5.70
2018-12-09T19:58:37.400Z,5.60
2018-12-09T20:03:41.026Z,5.50
2018-12-09T20:08:44.711Z,5.50
2018-12-09T20:13:49.899Z,5.50
2018-12-09T20:18:54.001Z,5.60
2018-12-09T20:23:57.762Z,5.60
2018-12-09T20:29:01.258Z,5.60
2018-12-09T20:34:04.807Z,5.70
2018-12-09T20:39:08.759Z,5.60
2018-12-09T20:44:12.204Z,5.70
2018-12-09T20:49:16.011Z,5.70
2018-12-09T20:54:21.019Z,5.70
2018-12-09T20:59:25.727Z,5.80
2018-12-09T21:04:31.220Z,5.80
2018-12-09T21:09:36.997Z,5.80
2018-12-09T21:14:42.135Z,5.90
2018-12-09T21:19:45.866Z,5.90
2018-12-09T21:24:51.659Z,5.80
2018-12-09T21:29:56.384Z,5.80
2018-12-09T21:35:06.007Z,5.90
2018-12-09T21:40:10.824Z,5.90
2018-12-09T21:45:15.607Z,5.90
2018-12-09T21:50:20.424Z,5.90
2018-12-09T21:55:25.172Z,5.90
2018-12-09T22:00:29.717Z,5.90
2018-12-09T22:05:33.988Z,5.90
2018-12-09T22:10:37.594Z,6.00
2018-12-09T22:15:40.868Z,5.90
2018-12-09T22:20:44.278Z,5.90
2018-12-09T22:25:48.211Z,5.80
2018-12-09T22:30:52.228Z,5.80
2018-12-09T22:35:56.538Z,5.90
2018-12-09T22:40:59.809Z,5.90
2018-12-09T22:46:03.608Z,6.00
2018-12-09T22:51:07.003Z,6.00
2018-12-09T22:56:11.920Z,6.00
2018-12-09T23:01:21.166Z,5.90
2018-12-09T23:06:25.143Z,6.00
2018-12-09T23:11:28.581Z,6.00
2018-12-09T23:16:31.858Z,6.00
2018-12-09T23:21:35.287Z,6.00
2018-12-09T23:26:38.658Z,6.00
2018-12-09T23:31:42.037Z,6.10
2018-12-09T23:36:45.320Z,6.00
2018-12-09T23:41:48.590Z,6.00
2018-12-09T23:46:51.860Z,6.10
2018-12-09T23:51:55.155Z,6.10
2018-12-09T23:56:58.480Z,6.10
